Time;durP1;ratioP1;P1;durP2;ratioP2;P2;SDS_P1;SDS_P2;PMS_P1;PMS_P2;Temp;Humidity;BMP_temperature;BMP_pressure;BME280_temperature;BME280_humidity;BME280_pressure;Samples;Min_cycle;Max_cycle;Signal;HPM_P1;HPM_P2
2023/07/29 00:01:00;;;;;;;1.08;1.00;;;;;;;17.93;100.00;98021.19;4130431;28;20284;-46
2023/07/29 00:03:01;;;;;;;0.93;0.90;;;;;;;17.91;100.00;98008.81;4125929;28;20202;-47
2023/07/29 00:05:04;;;;;;;1.65;0.85;;;;;;;17.91;100.00;98017.13;4120708;28;20680;-47
2023/07/29 00:07:06;;;;;;;2.83;0.90;;;;;;;17.88;100.00;98006.66;4130405;28;20599;-46
2023/07/29 00:09:07;;;;;;;1.45;1.23;;;;;;;18.02;100.00;98007.44;4130438;28;20206;-46
2023/07/29 00:11:09;;;;;;;2.03;1.30;;;;;;;17.85;100.00;98013.63;4123124;28;20230;-46
2023/07/29 00:13:11;;;;;;;1.50;1.15;;;;;;;17.76;100.00;98006.34;4123329;28;20217;-46
2023/07/29 00:15:14;;;;;;;2.63;0.88;;;;;;;17.72;100.00;98003.38;4108338;28;20218;-47
2023/07/29 00:17:16;;;;;;;1.60;1.10;;;;;;;17.72;100.00;98000.59;4130252;28;20267;-46
2023/07/29 00:19:17;;;;;;;1.20;1.10;;;;;;;17.68;100.00;98007.06;4123783;28;20224;-47
2023/07/29 00:21:19;;;;;;;2.08;1.40;;;;;;;17.71;100.00;98006.47;4122059;28;20244;-46
2023/07/29 00:23:21;;;;;;;1.55;1.00;;;;;;;17.70;100.00;98002.03;4138077;28;20217;-46
2023/07/29 00:25:23;;;;;;;1.77;1.00;;;;;;;17.74;100.00;98003.91;4123580;28;20210;-47
2023/07/29 00:27:25;;;;;;;7.03;1.55;;;;;;;17.70;100.00;98004.81;4130685;28;20225;-47
2023/07/29 00:29:27;;;;;;;1.08;1.00;;;;;;;17.85;100.00;98001.75;4123824;28;20626;-46
2023/07/29 00:31:28;;;;;;;5.63;1.00;;;;;;;17.68;100.00;98004.31;4122954;28;20216;-47
2023/07/29 00:33:30;;;;;;;1.92;1.13;;;;;;;17.70;100.00;97999.28;4122431;28;20202;-46
2023/07/29 00:35:32;;;;;;;1.38;1.05;;;;;;;17.69;100.00;97994.88;4122871;28;20724;-46
2023/07/29 00:37:34;;;;;;;0.88;0.73;;;;;;;17.71;100.00;97995.41;4123710;28;20226;-46
2023/07/29 00:39:39;;;;;;;2.33;1.17;;;;;;;17.72;100.00;97989.53;4130155;28;20663;-47
2023/07/29 00:41:41;;;;;;;1.75;0.80;;;;;;;17.77;100.00;97988.59;4132114;28;20261;-46
2023/07/29 00:43:43;;;;;;;1.60;0.90;;;;;;;17.77;100.00;97991.38;4122695;28;20212;-46
2023/07/29 00:45:45;;;;;;;1.88;1.00;;;;;;;17.81;100.00;97989.63;4114306;28;20771;-47
2023/07/29 00:47:47;;;;;;;1.35;1.10;;;;;;;17.81;100.00;97989.63;4124056;28;20231;-46
2023/07/29 00:49:50;;;;;;;1.15;1.13;;;;;;;17.83;100.00;97992.91;4131568;28;20229;-46
2023/07/29 00:51:52;;;;;;;1.23;1.13;;;;;;;17.81;100.00;97995.19;4129417;28;20814;-47
2023/07/29 00:53:54;;;;;;;1.60;1.15;;;;;;;17.80;100.00;97988.00;4130358;28;20210;-47
2023/07/29 00:55:55;;;;;;;1.85;0.85;;;;;;;17.95;100.00;97982.13;4128565;28;20213;-46
2023/07/29 00:57:57;;;;;;;1.23;1.13;;;;;;;17.83;100.00;97992.91;4114956;28;20257;-45
2023/07/29 01:00:01;;;;;;;2.90;1.00;;;;;;;17.82;100.00;97991.28;4122590;28;20712;-47
2023/07/29 01:02:03;;;;;;;3.30;1.98;;;;;;;17.80;100.00;97976.94;4121408;28;20222;-46
2023/07/29 01:04:05;;;;;;;1.50;1.40;;;;;;;17.74;100.00;97976.22;4121547;28;20732;-46
2023/07/29 01:06:15;;;;;;;1.52;1.42;;;;;;;17.77;100.00;97977.53;4131022;28;20217;-46
2023/07/29 01:08:34;;;;;;;1.30;1.20;;;;;;;17.77;100.00;97972.00;4119899;28;20205;-47
2023/07/29 01:10:59;;;;;;;2.17;2.08;;;;;;;17.74;100.00;97978.16;4127105;28;20230;-46
2023/07/29 01:13:21;;;;;;;1.35;1.08;;;;;;;17.74;100.00;97975.41;4119325;28;20621;-45
2023/07/29 01:15:36;;;;;;;1.23;1.00;;;;;;;17.73;100.00;97971.81;4122017;28;20747;-46
2023/07/29 01:17:43;;;;;;;1.33;1.23;;;;;;;17.74;100.00;97972.63;4122373;28;20198;-47
2023/07/29 01:20:01;;;;;;;1.25;1.17;;;;;;;17.85;100.00;97968.53;4135996;28;20206;-46
2023/07/29 01:22:02;;;;;;;3.13;1.33;;;;;;;17.75;100.00;97964.03;4119494;28;20207;-46
2023/07/29 01:24:04;;;;;;;1.30;1.20;;;;;;;17.78;100.00;97962.59;4127721;28;20202;-46
2023/07/29 01:26:06;;;;;;;1.30;1.00;;;;;;;17.81;100.00;97967.50;4122340;28;20214;-46
2023/07/29 01:28:08;;;;;;;1.30;1.20;;;;;;;17.84;100.00;97964.94;4128629;28;20269;-46
2023/07/29 01:30:13;;;;;;;3.08;1.40;;;;;;;17.81;100.00;97967.50;4120722;28;20237;-46
2023/07/29 01:32:55;;;;;;;0.80;0.80;;;;;;;17.79;100.00;97964.22;4119998;28;20229;-46
2023/07/29 01:35:04;;;;;;;1.50;0.98;;;;;;;17.80;100.00;97960.31;4119765;28;20665;-46
2023/07/29 01:37:07;;;;;;;1.98;0.98;;;;;;;17.85;100.00;97965.75;4134057;28;20201;-46
2023/07/29 01:39:11;;;;;;;2.30;0.98;;;;;;;17.85;100.00;97963.00;4122196;28;20210;-46
2023/07/29 01:41:13;;;;;;;4.63;1.15;;;;;;;17.96;100.00;97958.84;4105092;28;20235;-46
2023/07/29 01:43:15;;;;;;;1.40;1.13;;;;;;;18.00;100.00;97965.41;4125155;28;20221;-46
2023/07/29 01:45:17;;;;;;;2.13;1.00;;;;;;;18.02;100.00;97960.38;4125267;28;20218;-46
2023/07/29 01:47:22;;;;;;;1.23;0.95;;;;;;;18.05;100.00;97962.53;4130745;28;20238;-46
2023/07/29 01:49:23;;;;;;;1.00;1.00;;;;;;;18.19;100.00;97952.25;4126999;28;20209;-46
2023/07/29 01:51:25;;;;;;;0.95;0.93;;;;;;;18.28;100.00;97953.13;4110627;28;20235;-46
2023/07/29 01:53:27;;;;;;;2.35;0.90;;;;;;;18.33;100.00;97953.03;4120277;28;21107;-46
2023/07/29 01:55:29;;;;;;;0.95;0.95;;;;;;;18.34;100.00;97954.66;4119577;28;20587;-46
2023/07/29 01:57:31;;;;;;;0.82;0.82;;;;;;;18.36;100.00;97957.94;4118435;28;20243;-46
2023/07/29 01:59:32;;;;;;;0.80;0.80;;;;;;;18.44;100.00;97954.44;4120425;28;20202;-46
2023/07/29 02:01:34;;;;;;;0.93;0.82;;;;;;;18.48;100.00;97947.94;4125960;28;20214;-46
2023/07/29 02:03:36;;;;;;;2.53;0.80;;;;;;;18.50;100.00;97954.00;4119539;28;20667;-46
2023/07/29 02:05:38;;;;;;;1.60;0.93;;;;;;;18.52;100.00;97951.72;4118168;28;20206;-46
2023/07/29 02:07:39;;;;;;;0.98;0.98;;;;;;;18.49;100.00;97945.97;4123969;28;20230;-46
2023/07/29 02:09:41;;;;;;;1.55;0.80;;;;;;;18.44;100.00;97943.34;4105371;28;20709;-47
2023/07/29 02:11:43;;;;;;;1.45;0.80;;;;;;;18.46;100.00;97935.53;4124978;28;20229;-47
2023/07/29 02:13:45;;;;;;;0.93;0.93;;;;;;;18.50;100.00;97937.38;4123635;28;20293;-47
2023/07/29 02:15:46;;;;;;;1.48;1.38;;;;;;;18.45;100.00;97933.91;4120527;28;20251;-46
2023/07/29 02:17:50;;;;;;;1.02;0.70;;;;;;;18.46;100.00;97936.34;4124179;28;20273;-47
2023/07/29 02:19:52;;;;;;;0.95;0.90;;;;;;;18.44;100.00;97935.03;4120194;28;20276;-47
2023/07/29 02:21:54;;;;;;;1.00;0.90;;;;;;;18.42;100.00;97940.91;4107415;28;20254;-46
2023/07/29 02:23:55;;;;;;;0.70;0.70;;;;;;;18.42;100.00;97934.53;4115953;28;20215;-46
2023/07/29 02:25:57;;;;;;;2.08;0.80;;;;;;;18.39;100.00;97937.94;4125167;28;20202;-46
2023/07/29 02:27:59;;;;;;;2.33;0.80;;;;;;;18.40;100.00;97936.78;4121161;28;20236;-47
2023/07/29 02:30:01;;;;;;;1.48;0.98;;;;;;;18.41;100.00;97930.94;4119931;28;20336;-46
2023/07/29 02:32:03;;;;;;;1.52;0.93;;;;;;;18.44;100.00;97935.03;4121659;28;20261;-47
2023/07/29 02:34:05;;;;;;;0.80;0.80;;;;;;;18.39;100.00;97924.09;4118170;28;20669;-46
2023/07/29 02:36:10;;;;;;;1.65;0.80;;;;;;;18.39;100.00;97921.31;4121493;28;20214;-46
2023/07/29 02:38:11;;;;;;;1.10;0.90;;;;;;;18.41;100.00;97922.63;4119232;28;20256;-46
2023/07/29 02:40:16;;;;;;;1.00;0.98;;;;;;;18.40;100.00;97921.00;4124953;28;20273;-47
2023/07/29 02:42:18;;;;;;;1.60;0.93;;;;;;;18.44;100.00;97923.97;4117345;28;20233;-46
2023/07/29 02:44:20;;;;;;;1.42;0.90;;;;;;;18.42;100.00;97917.91;4124661;28;20265;-46
2023/07/29 02:46:21;;;;;;;2.13;0.80;;;;;;;18.36;100.00;97919.16;4126662;28;20237;-46
2023/07/29 02:48:24;;;;;;;1.40;0.90;;;;;;;18.38;100.00;97928.00;4118968;28;20774;-47
2023/07/29 02:50:26;;;;;;;1.58;0.80;;;;;;;18.41;100.00;97933.72;4126044;28;20281;-47
2023/07/29 02:52:28;;;;;;;2.13;0.77;;;;;;;18.40;100.00;97931.25;4119906;28;20210;-46
2023/07/29 02:54:30;;;;;;;0.70;0.70;;;;;;;18.43;100.00;97948.06;4117377;28;20217;-47
2023/07/29 02:56:31;;;;;;;1.25;1.00;;;;;;;18.46;100.00;97941.88;4119695;28;20257;-46
2023/07/29 02:58:33;;;;;;;1.35;1.25;;;;;;;18.47;100.00;97940.78;4118582;28;20257;-47
2023/07/29 03:00:35;;;;;;;1.58;1.00;;;;;;;18.44;100.00;97938.63;4120418;28;20233;-46
2023/07/29 03:02:37;;;;;;;4.43;0.85;;;;;;;18.47;100.00;97934.41;4102272;28;20226;-45
2023/07/29 03:04:39;;;;;;;2.10;0.90;;;;;;;18.46;100.00;97935.53;4118395;28;20747;-46
2023/07/29 03:06:40;;;;;;;1.00;0.90;;;;;;;18.50;100.00;97919.91;4120724;28;20268;-46
2023/07/29 03:08:42;;;;;;;1.15;1.05;;;;;;;18.53;100.00;97920.09;4135554;28;20232;-46
2023/07/29 03:10:44;;;;;;;1.38;0.80;;;;;;;18.51;100.00;97921.56;4116553;28;20308;-47
2023/07/29 03:12:46;;;;;;;2.55;1.05;;;;;;;18.52;100.00;97926.78;4118666;28;20206;-46
2023/07/29 03:14:48;;;;;;;3.28;1.00;;;;;;;18.62;100.00;97914.63;4126248;28;20778;-47
2023/07/29 03:16:50;;;;;;;3.28;1.08;;;;;;;18.53;100.00;97913.75;4120066;28;20210;-47
2023/07/29 03:18:52;;;;;;;2.53;0.98;;;;;;;18.54;100.00;97915.38;4122128;28;20211;-47
2023/07/29 03:20:55;;;;;;;1.08;0.90;;;;;;;18.48;100.00;97911.09;4125996;28;20228;-46
2023/07/29 03:22:57;;;;;;;3.47;1.10;;;;;;;18.54;100.00;97909.84;4118593;28;20269;-47
2023/07/29 03:24:59;;;;;;;7.03;1.27;;;;;;;18.50;100.00;97914.38;4133218;28;20232;-46
2023/07/29 03:27:01;;;;;;;3.92;1.00;;;;;;;18.51;100.00;97913.25;4133207;28;20202;-48
2023/07/29 03:29:03;;;;;;;0.95;0.95;;;;;;;18.49;100.00;97912.72;4125512;28;20205;-46
2023/07/29 03:31:04;;;;;;;1.95;0.85;;;;;;;18.45;100.00;97911.75;4128302;28;20240;-47
2023/07/29 03:33:06;;;;;;;5.03;1.05;;;;;;;18.53;100.00;97914.53;4118703;28;20206;-47
2023/07/29 03:35:08;;;;;;;3.90;1.10;;;;;;;18.49;100.00;97907.19;4121977;28;20210;-47
2023/07/29 03:37:10;;;;;;;0.77;0.77;;;;;;;18.45;100.00;97907.00;4135870;28;20694;-47
2023/07/29 03:39:12;;;;;;;0.90;0.90;;;;;;;18.41;100.00;97905.19;4137741;28;20973;-46
2023/07/29 03:41:13;;;;;;;1.73;0.80;;;;;;;18.42;100.00;97901.28;4119261;28;20290;-46
2023/07/29 03:43:15;;;;;;;1.10;1.00;;;;;;;18.41;100.00;97907.94;4119984;28;20222;-47
2023/07/29 03:45:17;;;;;;;0.90;0.90;;;;;;;18.44;100.00;97887.94;4127580;28;20715;-47
2023/07/29 03:47:18;;;;;;;1.73;1.00;;;;;;;18.31;100.00;97889.63;4125201;28;20209;-46
2023/07/29 03:49:20;;;;;;;0.85;0.77;;;;;;;18.34;100.00;97882.63;4125148;28;20954;-46
2023/07/29 03:51:23;;;;;;;1.50;0.90;;;;;;;18.28;100.00;97878.31;4121271;28;20238;-47
2023/07/29 03:53:25;;;;;;;2.15;1.17;;;;;;;18.28;100.00;97878.31;4123493;28;20225;-46
2023/07/29 03:55:27;;;;;;;1.05;0.90;;;;;;;18.23;100.00;97884.81;4137717;28;20205;-47
2023/07/29 03:57:29;;;;;;;1.10;1.05;;;;;;;18.28;100.00;97876.38;4123187;28;20206;-47
2023/07/29 03:59:31;;;;;;;1.10;0.80;;;;;;;18.24;100.00;97872.59;4116323;28;20249;-47
2023/07/29 04:01:33;;;;;;;1.40;0.95;;;;;;;18.22;100.00;97879.59;4103904;28;20214;-47
2023/07/29 04:03:34;;;;;;;7.90;1.30;;;;;;;18.32;100.00;97887.69;4121285;28;20217;-47
2023/07/29 04:05:36;;;;;;;2.58;0.90;;;;;;;18.24;100.00;97882.88;4119381;28;20639;-47
2023/07/29 04:07:39;;;;;;;1.85;1.17;;;;;;;18.17;100.00;97883.31;4119734;28;20489;-46
2023/07/29 04:09:43;;;;;;;1.55;0.80;;;;;;;18.16;100.00;97880.84;4118293;28;20268;-46
2023/07/29 04:11:47;;;;;;;1.45;0.90;;;;;;;18.14;100.00;97892.25;4123365;28;20217;-46
2023/07/29 04:13:50;;;;;;;1.17;0.80;;;;;;;18.12;100.00;97885.38;4133055;28;20212;-46
2023/07/29 04:15:52;;;;;;;0.82;0.80;;;;;;;18.10;100.00;97887.63;4123548;28;20237;-47
2023/07/29 04:17:53;;;;;;;5.30;0.90;;;;;;;18.07;100.00;97888.25;4123266;28;20213;-46
2023/07/29 04:19:55;;;;;;;1.88;1.23;;;;;;;18.07;100.00;97893.81;4119060;28;20317;-47
2023/07/29 04:21:57;;;;;;;2.42;1.58;;;;;;;18.08;100.00;97892.66;4122569;28;20209;-46
2023/07/29 04:23:59;;;;;;;0.77;0.77;;;;;;;18.08;100.00;97887.13;4120764;28;20256;-47
2023/07/29 04:26:01;;;;;;;2.83;1.20;;;;;;;18.06;100.00;97886.63;4126108;28;20326;-47
2023/07/29 04:28:04;;;;;;;1.55;0.90;;;;;;;18.05;100.00;97890.53;4118819;28;20225;-46
2023/07/29 04:30:07;;;;;;;2.20;1.23;;;;;;;18.02;100.00;97896.69;4119956;28;20716;-47
2023/07/29 04:32:08;;;;;;;3.03;1.40;;;;;;;18.01;100.00;97895.06;4134877;28;20717;-51
2023/07/29 04:34:10;;;;;;;3.08;1.40;;;;;;;18.04;100.00;97906.31;4135012;28;20221;-47
2023/07/29 04:36:12;;;;;;;1.65;0.93;;;;;;;18.03;100.00;97895.56;4122952;28;20206;-46
2023/07/29 04:38:14;;;;;;;1.10;1.00;;;;;;;17.97;100.00;97888.50;4124216;28;20228;-48
2023/07/29 04:40:16;;;;;;;1.52;1.15;;;;;;;17.95;100.00;97893.53;4123591;28;20230;-46
2023/07/29 04:42:17;;;;;;;1.88;1.00;;;;;;;17.97;100.00;97894.88;4124264;28;20273;-47
2023/07/29 04:44:19;;;;;;;1.17;1.08;;;;;;;18.11;100.00;97894.81;4115898;28;20221;-46
2023/07/29 04:46:21;;;;;;;1.55;1.00;;;;;;;18.13;100.00;97892.56;4119872;28;20213;-46
2023/07/29 04:48:23;;;;;;;1.10;1.10;;;;;;;18.10;100.00;97893.16;4127856;28;20313;-47
2023/07/29 04:50:24;;;;;;;3.20;1.10;;;;;;;18.17;100.00;97894.38;4125717;28;20234;-46
2023/07/29 04:52:26;;;;;;;1.33;1.17;;;;;;;18.28;100.00;97900.47;4134331;28;20213;-46
2023/07/29 04:54:28;;;;;;;1.98;1.40;;;;;;;18.27;100.00;97899.69;4111935;28;20211;-46
2023/07/29 04:56:29;;;;;;;1.85;1.48;;;;;;;18.28;100.00;97894.94;4117987;28;20214;-46
2023/07/29 04:58:34;;;;;;;3.15;1.55;;;;;;;18.31;100.00;97899.91;4126803;28;20817;-46
2023/07/29 05:00:36;;;;;;;4.03;1.40;;;;;;;18.29;100.00;97896.56;4127268;28;20320;-47
2023/07/29 05:02:38;;;;;;;2.92;1.10;;;;;;;18.33;100.00;97892.09;4127742;28;20696;-46
2023/07/29 05:04:39;;;;;;;1.45;1.35;;;;;;;18.27;100.00;97894.16;4120844;28;20215;-46
2023/07/29 05:06:41;;;;;;;4.32;1.35;;;;;;;18.31;100.00;97899.91;4120115;28;20252;-47
2023/07/29 05:08:43;;;;;;;1.88;1.48;;;;;;;18.33;100.00;97903.16;4112047;28;20364;-46
2023/07/29 05:10:48;;;;;;;2.47;1.42;;;;;;;18.39;100.00;97907.47;4113894;28;20230;-47
2023/07/29 05:12:50;;;;;;;1.95;1.60;;;;;;;18.37;100.00;97909.69;4123100;28;20206;-47
2023/07/29 05:14:52;;;;;;;1.80;1.40;;;;;;;18.41;100.00;97911.56;4108604;28;20219;-46
2023/07/29 05:16:54;;;;;;;1.88;1.58;;;;;;;18.42;100.00;97912.34;4119028;28;20209;-47
2023/07/29 05:18:56;;;;;;;1.55;1.33;;;;;;;18.40;100.00;97907.16;4125507;28;20221;-47
2023/07/29 05:20:57;;;;;;;1.75;1.65;;;;;;;18.47;100.00;97906.69;4105447;28;20640;-46
2023/07/29 05:23:00;;;;;;;2.00;1.70;;;;;;;18.48;100.00;97900.00;4102336;28;20271;-47
2023/07/29 05:25:02;;;;;;;1.90;1.70;;;;;;;18.51;100.00;97900.19;4127319;28;20932;-46
2023/07/29 05:27:04;;;;;;;2.75;2.13;;;;;;;18.52;100.00;97907.38;4120662;28;20735;-47
2023/07/29 05:29:06;;;;;;;4.65;1.63;;;;;;;18.54;100.00;97901.53;4102673;28;20235;-47
2023/07/29 05:31:08;;;;;;;1.70;1.60;;;;;;;18.59;100.00;97904.16;4122690;28;20261;-47
2023/07/29 05:33:10;;;;;;;1.98;1.88;;;;;;;18.61;100.00;97910.22;4126439;28;20256;-46
2023/07/29 05:35:12;;;;;;;3.08;1.73;;;;;;;18.61;100.00;97901.91;4127013;28;20214;-46
2023/07/29 05:37:13;;;;;;;1.60;1.50;;;;;;;18.65;100.00;97911.22;4121831;28;20695;-46
2023/07/29 05:39:15;;;;;;;1.73;1.60;;;;;;;18.66;100.00;97907.31;4107074;28;20215;-46
2023/07/29 05:41:17;;;;;;;2.78;2.13;;;;;;;18.66;100.00;97910.09;4123376;28;20245;-47
2023/07/29 05:43:19;;;;;;;3.17;2.70;;;;;;;18.71;100.00;97898.88;4126171;28;20209;-46
2023/07/29 05:45:20;;;;;;;2.42;2.22;;;;;;;18.74;100.00;97904.59;4125860;28;20213;-47
2023/07/29 05:47:22;;;;;;;2.85;2.65;;;;;;;18.78;100.00;97907.56;4118732;28;20214;-47
2023/07/29 05:49:24;;;;;;;3.03;2.80;;;;;;;18.77;100.00;97895.63;4119122;28;20236;-48
2023/07/29 05:51:26;;;;;;;3.00;2.33;;;;;;;18.79;100.00;97906.41;4104575;28;20844;-46
2023/07/29 05:53:27;;;;;;;4.85;2.40;;;;;;;18.84;100.00;97903.50;4108863;28;20219;-46
2023/07/29 05:55:29;;;;;;;3.28;2.17;;;;;;;18.88;100.00;97901.72;4127512;28;20211;-47
2023/07/29 05:57:31;;;;;;;2.42;2.22;;;;;;;18.86;100.00;97907.56;4122288;28;20261;-47
2023/07/29 05:59:33;;;;;;;2.45;2.25;;;;;;;18.90;100.00;97908.59;4120968;28;20213;-46
2023/07/29 06:01:35;;;;;;;3.10;1.85;;;;;;;18.92;100.00;97911.06;4122064;28;20294;-47
2023/07/29 06:03:36;;;;;;;3.10;1.88;;;;;;;18.93;100.00;97902.41;4126881;28;20207;-46
2023/07/29 06:05:39;;;;;;;1.80;1.70;;;;;;;19.03;100.00;97907.69;4119998;28;20635;-46
2023/07/29 06:07:43;;;;;;;1.80;1.70;;;;;;;18.96;100.00;97918.41;4124031;28;20205;-47
2023/07/29 06:09:46;;;;;;;2.03;1.92;;;;;;;19.00;100.00;97918.59;4124079;28;20245;-46
2023/07/29 06:11:48;;;;;;;3.17;2.00;;;;;;;19.09;100.00;97925.00;4125869;28;20647;-47
2023/07/29 06:13:49;;;;;;;2.65;1.70;;;;;;;19.13;100.00;97934.31;4120679;28;20256;-46
2023/07/29 06:15:51;;;;;;;4.35;1.50;;;;;;;19.12;100.00;97927.13;4120325;28;20209;-46
2023/07/29 06:17:53;;;;;;;2.65;1.35;;;;;;;19.13;100.00;97934.31;4121591;28;20952;-46
2023/07/29 06:19:58;;;;;;;2.05;1.45;;;;;;;19.17;100.00;97924.25;4124097;28;20383;-46
2023/07/29 06:22:01;;;;;;;1.92;1.77;;;;;;;19.21;100.00;97926.06;4120513;28;20211;-46
2023/07/29 06:24:03;;;;;;;1.33;1.25;;;;;;;19.20;100.00;97931.94;4118843;28;20260;-46
2023/07/29 06:26:07;;;;;;;3.05;1.60;;;;;;;19.16;100.00;97934.50;4105338;28;20698;-47
2023/07/29 06:28:09;;;;;;;2.55;1.42;;;;;;;19.25;100.00;97937.34;4115517;28;20728;-46
2023/07/29 06:30:11;;;;;;;1.75;1.30;;;;;;;19.25;100.00;97943.69;4126132;28;20341;-46
2023/07/29 06:32:13;;;;;;;8.52;1.80;;;;;;;19.27;100.00;97937.84;4117386;28;20268;-46
2023/07/29 06:34:15;;;;;;;2.03;1.40;;;;;;;19.20;100.00;97940.25;4106245;28;20218;-47
2023/07/29 06:36:16;;;;;;;6.13;1.60;;;;;;;19.19;100.00;97939.41;4121851;28;20213;-46
2023/07/29 06:38:21;;;;;;;2.45;1.35;;;;;;;19.20;100.00;97935.53;4105295;28;20269;-46
2023/07/29 06:40:23;;;;;;;1.85;1.70;;;;;;;19.30;100.00;97951.91;4125455;28;20241;-46
2023/07/29 06:42:25;;;;;;;2.10;1.77;;;;;;;19.34;100.00;97947.34;4136134;28;20206;-46
2023/07/29 06:44:26;;;;;;;2.28;2.03;;;;;;;19.35;100.00;97939.81;4117343;28;20273;-46
2023/07/29 06:46:28;;;;;;;1.92;1.70;;;;;;;19.39;100.00;97943.59;4124462;28;20281;-46
2023/07/29 06:48:30;;;;;;;1.98;1.85;;;;;;;19.36;100.00;97947.84;4108881;28;20273;-46
2023/07/29 06:50:32;;;;;;;1.98;1.60;;;;;;;19.39;100.00;97954.72;4119378;28;20616;-46
2023/07/29 06:52:33;;;;;;;2.03;1.80;;;;;;;19.39;100.00;97982.47;4116568;28;20212;-46
2023/07/29 06:54:35;;;;;;;6.97;1.60;;;;;;;19.35;100.00;98003.66;4126425;28;20260;-46
2023/07/29 06:56:37;;;;;;;12.27;2.60;;;;;;;19.22;100.00;97971.25;4125321;28;20210;-46
2023/07/29 06:58:39;;;;;;;6.00;1.90;;;;;;;18.96;100.00;97984.97;4124655;28;20209;-47
2023/07/29 07:00:41;;;;;;;4.32;1.33;;;;;;;18.71;100.00;97991.16;4123117;28;21075;-46
2023/07/29 07:02:43;;;;;;;4.43;1.25;;;;;;;18.58;100.00;98007.84;4099960;28;20215;-46
2023/07/29 07:04:45;;;;;;;1.48;1.02;;;;;;;18.25;100.00;98006.38;4119417;28;20930;-47
2023/07/29 07:06:47;;;;;;;3.53;0.85;;;;;;;17.99;100.00;97999.78;4121825;28;20208;-47
2023/07/29 07:08:49;;;;;;;3.85;1.05;;;;;;;18.15;100.00;97995.53;4125006;28;20240;-47
2023/07/29 07:10:51;;;;;;;4.22;2.30;;;;;;;18.05;100.00;98004.06;4126230;28;20259;-47
2023/07/29 07:12:53;;;;;;;2.45;0.90;;;;;;;18.11;100.00;98000.88;4119493;28;20209;-46
2023/07/29 07:14:55;;;;;;;1.67;1.10;;;;;;;18.12;100.00;98001.69;4122459;28;20222;-47
2023/07/29 07:16:56;;;;;;;1.92;0.95;;;;;;;18.05;100.00;98012.38;4126322;28;20568;-46
2023/07/29 07:18:58;;;;;;;1.40;0.80;;;;;;;17.90;100.00;98007.16;4117251;28;20217;-46
2023/07/29 07:21:00;;;;;;;2.45;0.70;;;;;;;17.88;100.00;97995.56;4118308;28;20230;-46
2023/07/29 07:23:02;;;;;;;2.92;0.93;;;;;;;17.82;100.00;98000.41;4120824;28;20289;-47
2023/07/29 07:25:04;;;;;;;1.40;0.60;;;;;;;17.83;100.00;97998.44;4118982;28;20288;-47
2023/07/29 07:27:09;;;;;;;1.40;0.80;;;;;;;17.83;100.00;97992.91;4120190;28;20217;-47
2023/07/29 07:29:11;;;;;;;0.63;0.63;;;;;;;17.90;100.00;97996.06;4105643;28;20310;-47
2023/07/29 07:31:12;;;;;;;1.77;0.75;;;;;;;18.10;100.00;97985.38;4120529;28;20225;-47
2023/07/29 07:33:17;;;;;;;3.42;0.90;;;;;;;18.51;100.00;97982.53;4133487;28;20214;-47
2023/07/29 07:35:19;;;;;;;0.82;0.65;;;;;;;18.97;100.00;97985.81;4119700;28;20197;-47
2023/07/29 07:37:21;;;;;;;6.00;0.90;;;;;;;19.39;100.00;97994.38;4123976;28;20229;-47
2023/07/29 07:39:23;;;;;;;1.52;0.75;;;;;;;19.56;100.00;97990.84;4124641;28;20208;-47
2023/07/29 07:41:25;;;;;;;1.73;0.75;;;;;;;19.43;100.00;97989.00;4120228;28;20226;-48
2023/07/29 07:43:27;;;;;;;1.02;0.63;;;;;;;19.37;100.00;97995.84;4125080;28;20625;-47
2023/07/29 07:45:28;;;;;;;0.60;0.60;;;;;;;19.42;100.00;97998.47;4125174;28;20373;-48
2023/07/29 07:47:30;;;;;;;2.42;0.70;;;;;;;19.43;100.00;97998.16;4119511;28;20574;-47
2023/07/29 07:49:32;;;;;;;1.75;0.60;;;;;;;19.40;100.00;97989.66;4118819;28;20787;-47
2023/07/29 07:51:34;;;;;;;0.70;0.60;;;;;;;19.25;100.00;97990.88;4119048;28;20217;-47
2023/07/29 07:53:35;;;;;;;3.65;0.80;;;;;;;19.23;100.00;97992.31;4118737;28;20715;-47
2023/07/29 07:55:37;;;;;;;0.70;0.70;;;;;;;19.28;100.00;98003.28;4119184;28;20214;-47
2023/07/29 07:57:39;;;;;;;1.70;0.85;;;;;;;19.25;100.00;98009.50;4121406;28;20300;-47
2023/07/29 07:59:40;;;;;;;0.73;0.70;;;;;;;19.16;100.00;98000.25;4120857;28;20209;-47
2023/07/29 08:01:42;;;;;;;1.23;0.70;;;;;;;19.21;100.00;97992.66;4119042;28;20217;-47
2023/07/29 08:03:44;;;;;;;1.48;0.70;;;;;;;19.10;100.00;97984.88;4121653;28;20211;-47
2023/07/29 08:05:46;;;;;;;1.05;0.80;;;;;;;19.04;100.00;97975.06;4124107;28;20215;-47
2023/07/29 08:07:48;;;;;;;0.73;0.73;;;;;;;19.16;100.00;97972.50;4119398;28;20202;-46
2023/07/29 08:09:50;;;;;;;0.88;0.65;;;;;;;19.28;100.00;97975.53;4120972;28;20242;-47
2023/07/29 08:11:51;;;;;;;0.77;0.77;;;;;;;19.23;100.00;97978.44;4099306;28;20265;-46
2023/07/29 08:13:53;;;;;;;0.70;0.70;;;;;;;19.52;100.00;97992.66;4118703;28;20206;-47
2023/07/29 08:15:55;;;;;;;1.10;0.60;;;;;;;20.21;100.00;97981.44;4123539;28;20217;-46
2023/07/29 08:17:57;;;;;;;1.98;0.98;;;;;;;20.92;100.00;97993.88;4124192;28;20252;-47
2023/07/29 08:19:59;;;;;;;2.30;1.00;;;;;;;21.01;100.00;97997.47;4125271;28;20221;-47
2023/07/29 08:22:02;;;;;;;1.27;0.77;;;;;;;21.07;100.00;98007.28;4127706;28;20209;-47
2023/07/29 08:24:04;;;;;;;1.80;0.73;;;;;;;21.00;100.00;98002.22;4136681;28;20206;-46
2023/07/29 08:26:06;;;;;;;1.83;0.98;;;;;;;20.80;100.00;98002.03;4120979;28;20221;-47
2023/07/29 08:28:11;;;;;;;2.17;1.00;;;;;;;20.78;100.00;97998.78;4123576;28;20217;-47
2023/07/29 08:30:12;;;;;;;1.65;0.70;;;;;;;20.93;100.00;98003.88;4124134;28;20244;-46
2023/07/29 08:32:14;;;;;;;1.33;0.90;;;;;;;20.85;100.00;97994.34;4119553;28;20225;-46
2023/07/29 08:34:16;;;;;;;0.70;0.70;;;;;;;21.04;100.00;97991.25;4130526;28;20279;-46
2023/07/29 08:36:18;;;;;;;1.05;0.88;;;;;;;21.51;100.00;97990.16;4121972;28;20209;-45
2023/07/29 08:38:20;;;;;;;2.50;0.85;;;;;;;21.58;100.00;97996.00;4128649;28;20214;-46
2023/07/29 08:40:27;;;;;;;1.63;0.80;;;;;;;21.61;100.00;97995.31;4127313;28;20260;-46
2023/07/29 08:42:31;;;;;;;1.85;1.08;;;;;;;21.48;100.00;98001.94;4129395;28;20217;-46
2023/07/29 08:44:41;;;;;;;3.28;0.85;;;;;;;22.01;100.00;98005.00;4126638;28;20601;-46
2023/07/29 08:46:43;;;;;;;1.15;0.80;;;;;;;21.82;100.00;98012.97;4119328;28;20213;-46
2023/07/29 08:48:45;;;;;;;2.85;0.70;;;;;;;21.47;100.00;98005.88;4136472;28;20303;-45
2023/07/29 08:50:47;;;;;;;1.33;0.95;;;;;;;21.79;100.00;98003.31;4123542;28;20232;-46
2023/07/29 08:52:51;;;;;;;2.45;1.10;;;;;;;22.36;100.00;98000.84;4110499;28;20210;-46
2023/07/29 08:54:52;;;;;;;1.20;0.82;;;;;;;22.87;100.00;97995.72;4119365;28;20205;-47
2023/07/29 08:56:54;;;;;;;2.83;0.95;;;;;;;23.13;100.00;97981.50;4117713;28;20205;-47
2023/07/29 08:58:56;;;;;;;1.10;1.00;;;;;;;22.86;100.00;97987.69;4121906;28;20220;-46
2023/07/29 09:00:58;;;;;;;2.00;0.90;;;;;;;22.75;100.00;97992.03;4110284;28;20827;-46
2023/07/29 09:03:06;;;;;;;1.60;1.13;;;;;;;22.65;100.00;97995.25;4135377;28;20714;-46
2023/07/29 09:05:08;;;;;;;1.58;0.70;;;;;;;22.29;100.00;97989.41;4120031;28;20213;-46
2023/07/29 09:07:10;;;;;;;1.52;0.95;;;;;;;22.35;100.00;97982.47;4129691;28;20213;-46
2023/07/29 09:09:12;;;;;;;1.55;0.80;;;;;;;21.94;100.00;97988.00;4121562;28;20229;-46
2023/07/29 09:11:16;;;;;;;0.80;0.80;;;;;;;22.10;100.00;97984.28;4122633;28;20234;-47
2023/07/29 09:13:19;;;;;;;1.08;0.98;;;;;;;22.78;100.00;97974.63;4125842;28;20210;-46
2023/07/29 09:15:31;;;;;;;2.05;0.80;;;;;;;23.38;100.00;97963.69;4111206;28;20281;-47
2023/07/29 09:17:33;;;;;;;2.17;1.00;;;;;;;23.62;100.00;97969.28;4118256;28;20818;-47
2023/07/29 09:19:35;;;;;;;0.98;0.90;;;;;;;23.91;100.00;97964.31;4128483;28;20252;-46
2023/07/29 09:21:41;;;;;;;2.53;1.00;;;;;;;23.97;100.00;97956.53;4122355;28;20289;-47
2023/07/29 09:23:44;;;;;;;2.42;0.98;;;;;;;23.85;100.00;97960.09;4128011;28;20217;-46
2023/07/29 09:25:48;;;;;;;1.60;0.98;;;;;;;23.63;100.00;97957.78;4126462;28;20213;-46
2023/07/29 09:27:50;;;;;;;1.38;1.10;;;;;;;23.98;100.00;97964.56;4124017;28;20213;-45
2023/07/29 09:29:53;;;;;;;2.13;1.00;;;;;;;24.12;100.00;97960.25;4120409;28;20704;-46